Saturday, December 16, 2017, 9:28 PM EST
Back to Local

KSHD, Staunton / Shenandoah

Location: Weyers Cave, VA, United States Lat: 38.267
Local Time: 9:28 PM EST ( 2:28 GMT) Lon: -78.9
Time Zone: US/Eastern Elev: 1200 ft

Show me the last for .
Show Coded

Time T Td Feel RH Dir Speed Gust Alt SLP Vis Weather Sky Remarks
2017-12-16 21:15 35 22 - 58 - Calm - 30.17 - 10 CLR None
2017-12-16 20:55 35 22 32 59 210° 3 - 30.16 - 10 CLR None
2017-12-16 20:35 37 23 33 57 220° 5 - 30.16 - 10 CLR None
2017-12-16 20:15 37 23 30 57 230° 8 - 30.15 - 10 CLR None
2017-12-16 19:55 37 23 33 55 230° 6 - 30.15 - 10 CLR None
2017-12-16 19:35 38 23 32 54 230° 8 - 30.14 - 10 CLR None
2017-12-16 19:15 39 23 34 52 210° 7 - 30.14 - 10 CLR None
2017-12-16 18:55 37 23 32 55 200° 7 - 30.13 - 10 CLR 6-hr Min Temp (7pm): 36.5°F
6-hr Max Temp (7pm): 47.5°F
2017-12-16 18:35 38 22 33 53 210° 6 - 30.12 - 10 CLR None
2017-12-16 18:15 40 23 37 50 200° 5 - 30.12 - 10 CLR None
2017-12-16 17:55 41 23 37 48 190° 6 - 30.11 - 10 CLR None
2017-12-16 17:35 41 24 36 49 200° 7 - 30.10 - 10 CLR None
2017-12-16 17:15 42 24 37 47 210° 9 - 30.09 - 10 CLR None
2017-12-16 16:55 44 24 39 44 220° 9 - 30.08 - 10 CLR None
2017-12-16 16:35 46 24 40 42 210° 10 - 30.07 - 10 CLR None
2017-12-16 16:20 46 24 40 40 220° 13 16 30.07 - 10 CLR None
2017-12-16 15:55 47 24 40 40 220° 15 18 30.06 - 10 CLR None
2017-12-16 15:35 47 24 40 39 210° 15 18 30.06 - 10 CLR None
2017-12-16 15:15 47 24 42 40 200° 14 - 30.07 - 10 CLR None
2017-12-16 14:55 47 24 40 40 220° 14 21 30.07 - 10 CLR None
2017-12-16 14:35 47 24 39 40 230° 14 21 30.07 - 10 CLR None
2017-12-16 14:15 46 24 38 41 210° 14 23 30.06 - 10 CLR None
2017-12-16 13:55 46 24 40 41 230° 15 - 30.06 - 10 CLR None
2017-12-16 13:35 46 24 38 42 220° 14 20 30.07 - 10 CLR None
2017-12-16 13:15 45 24 38 42 220° 12 18 30.07 - 10 CLR None
2017-12-16 12:55 44 24 36 43 210° 15 20 30.08 - 10 CLR 6-hr Min Temp (1pm): 22.8°F
6-hr Max Temp (1pm): 44.4°F
2017-12-16 12:35 44 23 35 43 220° 15 22 30.09 - 10 CLR None
2017-12-16 12:15 43 22 34 44 220° 14 21 30.10 - 10 CLR None
2017-12-16 11:55 42 22 33 43 210° 14 23 30.11 - 10 CLR None
2017-12-16 11:35 41 21 34 44 220° 13 - 30.11 - 10 CLR None
2017-12-16 11:15 40 20 31 45 190° 12 17 30.12 - 10 CLR None
2017-12-16 10:55 39 20 33 46 220° 9 - 30.13 - 10 CLR None
2017-12-16 10:35 39 20 31 47 210° 13 - 30.13 - 10 CLR None
2017-12-16 10:15 37 20 30 49 190° 12 - 30.14 - 10 CLR None
2017-12-16 09:55 36 20 29 51 200° 9 - 30.14 - 10 CLR None
2017-12-16 09:35 35 20 27 54 200° 10 - 30.13 - 10 CLR None
2017-12-16 09:15 33 20 24 59 200° 12 - 30.12 - 10 CLR None
2017-12-16 08:55 31 20 24 61 190° 8 - 30.12 - 10 CLR None
2017-12-16 08:35 29 19 25 65 190° 5 - 30.13 - 10 CLR None
2017-12-16 08:15 27 18 21 68 180° 6 - 30.13 - 10 CLR None
2017-12-16 07:55 25 17 - 70 - Calm - 30.13 - 10 SCT095 None
2017-12-16 07:35 26 17 22 67 210° 3 - 30.13 - 10 CLR None
2017-12-16 07:15 24 17 20 73 220° 3 - 30.13 - 10 SCT050 None
2017-12-16 06:55 24 16 19 70 230° 5 - 30.13 - 10 SCT050 None
2017-12-16 06:35 26 17 19 68 150° 6 - 30.11 - 10 SCT049 None
2017-12-16 06:15 26 17 - 70 - Calm - 30.11 - 10 BKN049 None
2017-12-16 05:55 27 17 23 65 240° 3 - 30.11 - 10 OVC047 None
2017-12-16 05:35 - - - 0 - Calm - 30.09 - 10 OVC045 None
2017-12-16 05:15 28 17 - 62 - Calm - 30.10 - 10 OVC045 None
2017-12-16 04:55 28 17 25 61 170° 3 - 30.09 - 10 OVC045 None
2017-12-16 04:35 26 16 22 66 170° 3 - 30.08 - 10 OVC045 None
2017-12-16 04:15 24 15 18 69 170° 5 - 30.08 - 10 OVC045 None
2017-12-16 03:55 24 15 - 68 - Calm - 30.08 - 10 OVC047 None
2017-12-16 03:35 24 14 - 67 - Calm - 30.07 - 10 OVC047 None
2017-12-16 03:15 24 15 - 66 - Calm - 30.07 - 10 SCT049 None
2017-12-16 02:55 25 15 - 64 - Calm - 30.07 - 10 SCT049 None
2017-12-16 02:35 24 15 - 67 - Calm - 30.06 - 10 CLR None
2017-12-16 02:15 26 14 - 60 - Calm - 30.06 - 10 CLR None
2017-12-16 01:55 27 15 22 59 270° 5 - 30.05 - 10 CLR None
2017-12-16 01:35 27 15 22 59 270° 5 - 30.04 - 10 CLR None
2017-12-16 01:15 26 15 21 60 270° 5 - 30.04 - 10 CLR None
2017-12-16 00:55 26 15 20 62 260° 5 - 30.03 - 10 CLR 6-hr Min Temp (1am): 23.5°F
6-hr Max Temp (1am): 31.5°F
24-hr Min Temp (1am): 23.5°F
24-hr Max Temp (1am): 33.3°F
2017-12-16 00:35 25 15 19 63 260° 5 - 30.03 - 10 SCT050 None
2017-12-16 00:15 24 14 - 65 - Calm - 30.03 - 10 CLR None
2017-12-15 23:55 25 14 - 61 - Calm - 30.03 - 10 CLR None
2017-12-15 23:35 26 14 21 60 260° 5 - 30.03 - 10 CLR None
2017-12-15 23:15 27 15 20 58 260° 6 - 30.02 - 10 CLR None
2017-12-15 22:55 27 14 21 57 260° 6 - 30.01 - 10 CLR None
2017-12-15 22:35 27 14 23 58 270° 3 - 30.00 - 10 CLR None
2017-12-15 22:15 28 15 21 57 250° 7 - 30.00 - 10 CLR None
2017-12-15 21:55 27 15 20 58 240° 7 - 30.00 - 10 CLR None
2017-12-15 21:35 29 15 25 56 260° 3 - 30.00 - 10 CLR None

Support USWX by starting your Amazon purchase here.